createdAt,value
2019-02-01T00:01:26.739Z,86.7
2019-02-01T00:11:26.869Z,82.3
2019-02-01T00:21:26.537Z,87.3
2019-02-01T00:31:26.588Z,85.9
2019-02-01T00:41:26.394Z,89.0
2019-02-01T00:51:26.253Z,85.7
2019-02-01T01:01:27.382Z,83.0
2019-02-01T01:11:28.422Z,83.3
2019-02-01T01:21:26.484Z,80.9
2019-02-01T01:31:26.058Z,77.9
2019-02-01T01:41:25.929Z,79.4
2019-02-01T01:51:26.964Z,82.6
2019-02-01T02:01:26.699Z,76.6
2019-02-01T02:11:26.348Z,80.8
2019-02-01T02:21:27.039Z,82.4
2019-02-01T02:31:26.118Z,82.9
2019-02-01T02:41:25.843Z,84.0
2019-02-01T02:51:26.740Z,83.1
2019-02-01T03:01:27.466Z,89.2
2019-02-01T03:11:26.145Z,85.4
2019-02-01T03:21:27.001Z,84.0
2019-02-01T03:31:27.740Z,78.0
2019-02-01T03:41:27.815Z,73.4
2019-02-01T03:51:26.070Z,72.2
2019-02-01T04:01:25.795Z,69.7
2019-02-01T04:11:27.792Z,67.5
2019-02-01T04:21:26.887Z,72.2
2019-02-01T04:31:26.341Z,70.7
2019-02-01T04:41:26.255Z,70.4
2019-02-01T04:51:27.202Z,63.0
2019-02-01T05:01:25.874Z,62.5
2019-02-01T05:11:27.090Z,62.2
2019-02-01T05:21:25.834Z,60.9
2019-02-01T05:31:26.160Z,64.6
2019-02-01T05:41:27.824Z,62.7
2019-02-01T05:51:26.332Z,60.8
2019-02-01T06:01:26.709Z,63.1
2019-02-01T06:11:26.362Z,64.6
2019-02-01T06:21:28.083Z,61.5
2019-02-01T06:31:26.177Z,61.4
2019-02-01T06:41:27.204Z,63.3
2019-02-01T06:51:26.734Z,60.3
2019-02-01T07:01:30.923Z,60.9
2019-02-01T07:11:27.611Z,58.7
2019-02-01T07:21:27.411Z,59.0
2019-02-01T07:31:26.901Z,59.9
2019-02-01T07:41:26.711Z,58.5
2019-02-01T07:51:25.965Z,56.6
2019-02-01T08:01:27.100Z,56.1
2019-02-01T08:11:28.956Z,52.3
2019-02-01T08:21:27.365Z,47.6
2019-02-01T08:31:26.457Z,51.1
2019-02-01T08:41:26.890Z,49.7
2019-02-01T08:51:25.779Z,49.1
2019-02-01T09:01:26.771Z,50.1
2019-02-01T09:11:25.709Z,44.4
2019-02-01T09:21:26.650Z,45.8
2019-02-01T09:31:27.235Z,41.7
2019-02-01T09:41:26.494Z,30.4
2019-02-01T09:51:26.213Z,30.2
2019-02-01T10:01:27.673Z,27.8
2019-02-01T10:11:28.106Z,30.6
2019-02-01T10:21:26.683Z,30.1
2019-02-01T10:31:26.761Z,31.2
2019-02-01T10:41:26.609Z,31.0
2019-02-01T10:51:28.311Z,30.1
2019-02-01T11:01:26.515Z,26.7
2019-02-01T11:11:27.485Z,30.6
2019-02-01T11:21:26.481Z,30.8
2019-02-01T11:31:26.788Z,28.5
2019-02-01T11:41:28.507Z,27.1
2019-02-01T11:51:25.851Z,20.9
2019-02-01T12:01:27.852Z,13.4
2019-02-01T12:11:26.675Z,12.7
2019-02-01T12:21:26.695Z,9.9
2019-02-01T12:31:28.157Z,7.9
2019-02-01T12:41:26.191Z,7.8
2019-02-01T12:51:26.534Z,8.4
2019-02-01T13:01:27.451Z,9.2
2019-02-01T13:11:27.257Z,7.4
2019-02-01T13:21:27.401Z,7.2
2019-02-01T13:31:26.323Z,8.0
2019-02-01T13:41:25.991Z,7.4
2019-02-01T13:51:27.092Z,7.8
2019-02-01T14:01:26.971Z,7.5
2019-02-01T14:11:27.555Z,7.8
2019-02-01T14:21:26.585Z,8.6
2019-02-01T14:31:26.454Z,9.3
2019-02-01T14:41:27.418Z,7.6
2019-02-01T14:51:26.370Z,8.5
2019-02-01T15:01:28.120Z,8.8
2019-02-01T15:11:26.236Z,10.7
2019-02-01T15:21:26.571Z,9.3
2019-02-01T15:31:27.671Z,9.9
2019-02-01T15:41:27.113Z,10.9
2019-02-01T15:51:26.487Z,11.5
2019-02-01T16:01:28.595Z,11.4
2019-02-01T16:11:28.768Z,12.3
2019-02-01T16:21:26.913Z,11.9
2019-02-01T16:31:26.639Z,12.4
2019-02-01T16:41:26.417Z,12.2
2019-02-01T16:51:26.771Z,14.7
2019-02-01T17:01:27.073Z,13.5
2019-02-01T17:11:25.891Z,13.6
2019-02-01T17:21:27.117Z,13.7
2019-02-01T17:31:25.949Z,13.3
2019-02-01T17:41:25.777Z,14.4
2019-02-01T17:51:26.752Z,16.5
2019-02-01T18:01:26.942Z,16.4
2019-02-01T18:11:25.781Z,16.4
2019-02-01T18:21:26.396Z,16.5
2019-02-01T18:31:27.461Z,12.7
2019-02-01T18:41:27.676Z,12.3
2019-02-01T18:51:26.446Z,11.2
2019-02-01T19:01:26.384Z,12.0
2019-02-01T19:11:26.138Z,10.7
2019-02-01T19:21:27.855Z,11.9
2019-02-01T19:31:26.928Z,11.0
2019-02-01T19:41:26.726Z,11.5
2019-02-01T19:51:25.901Z,11.8
2019-02-01T20:01:26.755Z,11.4
2019-02-01T20:11:27.107Z,13.2
2019-02-01T20:21:26.008Z,13.3
2019-02-01T20:31:26.109Z,14.1
2019-02-01T20:41:27.743Z,14.9
2019-02-01T20:51:26.896Z,14.3
2019-02-01T21:01:28.348Z,14.6
2019-02-01T21:11:26.184Z,14.6
2019-02-01T21:21:26.488Z,14.0
2019-02-01T21:31:27.109Z,12.3
2019-02-01T21:41:26.056Z,10.6
2019-02-01T21:51:27.181Z,9.7
2019-02-01T22:01:26.031Z,17.7
2019-02-01T22:11:25.744Z,18.6
2019-02-01T22:21:26.906Z,12.0
2019-02-01T22:31:28.904Z,12.2
2019-02-01T22:41:26.655Z,10.4
2019-02-01T22:51:27.356Z,9.4
2019-02-01T23:01:28.468Z,8.9
2019-02-01T23:11:27.594Z,8.6
2019-02-01T23:21:26.622Z,7.1
2019-02-01T23:31:26.790Z,6.2
2019-02-01T23:41:27.694Z,6.5
2019-02-01T23:51:26.671Z,9.2
